Neptune Antlia — S6BE — position and weather

sailwx.info

Track history (hours):
 
Tides and Currents Weather Stations Pressure Air Temp Water Temp Dewpoint Dewpoint Depression Visibility Wind Speed Wind Dir Waves Ship Positions

Neptune Antlia

Last reported at 2015-Feb-01 22:28 UTC. Time now 2015-Feb-01 22:44 UTC.
Position N 31°55' E 120°13'.

Type: Cargo ship. MMSI: 563737000.

Date/timePositionNaut miles runAvg speedWind from/ knotsBaromVisibWave heightAir tempDewpointWater temp
2015-Feb-01 22:28N 31°55' E 120°13'0 0.0
2015-Feb-01 21:16N 31°55' E 120°13'0 0.0
2015-Feb-01 20:28N 31°55' E 120°13'0 0.1
2015-Feb-01 19:28N 31°55' E 120°13'0 0.0
2015-Feb-01 18:22N 31°55' E 120°13'0 0.1
2015-Feb-01 17:28N 31°55' E 120°13'0 0.0
2015-Feb-01 16:22N 31°55' E 120°13'0 0.1
2015-Feb-01 15:28N 31°55' E 120°13'0 0.1
2015-Feb-01 14:28N 31°55' E 120°13'0 0.0
2015-Feb-01 13:28N 31°55' E 120°13'0 0.0
2015-Feb-01 12:28N 31°56' E 120°13'0 0.0
2015-Feb-01 11:22N 31°55' E 120°13'0 0.0
2015-Feb-01 10:22N 31°56' E 120°13'0 0.0
2015-Feb-01 08:28N 31°55' E 120°13'0 0.0
2015-Feb-01 07:22N 31°56' E 120°13'0 0.0
2015-Feb-01 06:27N 31°55' E 120°13'0 0.0
2015-Feb-01 04:21N 31°55' E 120°13'0 0.0
2015-Feb-01 03:33N 31°55' E 120°13'5 4.9
2015-Feb-01 02:33N 31°58' E 120°18'6 5.4
2015-Feb-01 01:31N 32°01' E 120°24'0 0.0
2015-Feb-01 00:31N 32°01' E 120°24'0 0.0
2015-Jan-31 23:31N 32°01' E 120°24'0 0.0
2015-Jan-31 22:31N 32°01' E 120°24'0 0.1
2015-Jan-31 21:31N 32°01' E 120°24'0 0.1
2015-Jan-31 20:31N 32°01' E 120°24'0 0.1
2015-Jan-31 19:31N 32°01' E 120°23'0 0.0
2015-Jan-31 18:31N 32°01' E 120°23'0 0.0
2015-Jan-31 17:25N 32°01' E 120°23'0 0.0
2015-Jan-31 16:31N 32°01' E 120°23'0 0.2
2015-Jan-31 15:31N 32°01' E 120°24'1 0.6
2015-Jan-31 14:33N 32°01' E 120°23'4 4.2
2015-Jan-31 13:33N 31°58' E 120°20'7 6.8
2015-Jan-31 12:33N 31°59' E 120°27'7 7.2
2015-Jan-31 11:33N 32°00' E 120°36'1110.7
2015-Jan-31 10:33N 32°00' E 120°48'1110.6
2015-Jan-31 09:33N 31°51' E 120°54'5 5.1
2015-Jan-31 08:29N 31°46' E 120°57'0 0.0
2015-Jan-31 07:32N 31°46' E 120°57'0 0.0
2015-Jan-31 06:32N 31°46' E 120°57'0 0.0
2015-Jan-31 05:32N 31°46' E 120°57'0 0.0
2015-Jan-31 04:32N 31°46' E 120°57'0 0.0
2015-Jan-31 03:29N 31°46' E 120°57'0 0.0
2015-Jan-31 02:32N 31°46' E 120°57'0 0.0
2015-Jan-31 01:29N 31°46' E 120°57'0 0.0
2015-Jan-31 00:32N 31°46' E 120°57'0 0.0
2015-Jan-30 23:26N 31°46' E 120°57'0 0.0
2015-Jan-30 22:32N 31°46' E 120°57'0 0.0
2015-Jan-30 21:29N 31°46' E 120°57'0 0.0
2015-Jan-30 20:23N 31°46' E 120°57'0 0.0
2015-Jan-30 19:32N 31°46' E 120°57'0 0.0
2015-Jan-30 18:17N 31°46' E 120°57'0 0.0
2015-Jan-30 17:29N 31°46' E 120°57'0 0.0
2015-Jan-30 16:29N 31°46' E 120°57'0 0.0
2015-Jan-30 15:32N 31°46' E 120°57'0 0.0
2015-Jan-30 14:29N 31°46' E 120°57'0 0.0
2015-Jan-30 13:32N 31°46' E 120°57'0 0.0
2015-Jan-30 12:32N 31°46' E 120°57'0 0.0
2015-Jan-30 11:32N 31°46' E 120°57'0 0.0
2015-Jan-30 10:32N 31°46' E 120°57'0 0.4
2015-Jan-30 09:33N 31°46' E 120°57'5 4.3
2015-Jan-30 08:29N 31°47' E 121°02'0 0.1
2015-Jan-30 07:32N 31°47' E 121°02'0 0.0
2015-Jan-30 06:32N 31°47' E 121°02'0 0.1
2015-Jan-30 05:29N 31°47' E 121°02'0 0.2
2015-Jan-30 04:32N 31°47' E 121°02'0 0.1
2015-Jan-30 03:14N 31°47' E 121°02'0 0.0
2015-Jan-30 01:25N 31°47' E 121°02'0 0.1
2015-Jan-30 00:10N 31°47' E 121°02'0 0.2
2015-Jan-29 23:28N 31°47' E 121°02'0 0.0
2015-Jan-29 22:31N 31°47' E 121°02'0 0.0
2015-Jan-29 21:31N 31°47' E 121°02'0 0.0
2015-Jan-29 20:28N 31°47' E 121°02'0 0.0
2015-Jan-29 19:31N 31°47' E 121°02'0 0.0
2015-Jan-29 18:31N 31°47' E 121°02'0 0.0
2015-Jan-29 17:31N 31°47' E 121°02'0 0.0
2015-Jan-29 16:31N 31°47' E 121°02'0 0.1
2015-Jan-29 15:28N 31°47' E 121°02'0 0.1
2015-Jan-29 14:31N 31°47' E 121°02'0 0.1
2015-Jan-29 13:25N 31°47' E 121°02'0 0.0
2015-Jan-29 12:22N 31°47' E 121°02'0 0.1
2015-Jan-29 11:13N 31°47' E 121°02'0 0.1
2015-Jan-29 10:28N 31°47' E 121°02'0 0.0
2015-Jan-29 09:28N 31°47' E 121°02'0 0.0
2015-Jan-29 08:31N 31°47' E 121°02'0 0.0
2015-Jan-29 07:28N 31°47' E 121°02'0 0.0
2015-Jan-29 06:31N 31°47' E 121°02'0 0.0
2015-Jan-29 05:28N 31°47' E 121°02'0 0.1
2015-Jan-29 03:31N 31°47' E 121°02'0 0.1
2015-Jan-29 02:31N 31°47' E 121°02'0 0.0
2015-Jan-29 01:31N 31°47' E 121°02'0 0.0
2015-Jan-29 00:31N 31°47' E 121°02'0 0.0
2015-Jan-28 23:31N 31°47' E 121°02'0 0.1
2015-Jan-28 22:31N 31°47' E 121°02'0 0.2
2015-Jan-28 21:31N 31°47' E 121°02'0 0.1
2015-Jan-28 20:28N 31°47' E 121°02'0 0.0
2015-Jan-28 19:31N 31°47' E 121°02'0 0.0
2015-Jan-28 18:28N 31°47' E 121°02'0 0.0
2015-Jan-28 17:31N 31°47' E 121°02'0 0.0
2015-Jan-28 16:22N 31°47' E 121°02'0 0.0
2015-Jan-28 15:33N 31°47' E 121°02'0 0.1
2015-Jan-28 14:33N 31°47' E 121°02'0 0.1
2015-Jan-28 13:21N 31°47' E 121°02'0 0.0
2015-Jan-28 12:03N 31°47' E 121°02'0 0.0
2015-Jan-28 11:21N 31°47' E 121°02'0 0.0
2015-Jan-28 10:18N 31°47' E 121°02'0 0.2
2015-Jan-28 09:30N 31°47' E 121°02'0 0.2
2015-Jan-28 08:30N 31°47' E 121°02'0 0.0
2015-Jan-28 07:33N 31°47' E 121°02'0 0.0
2015-Jan-28 06:30N 31°47' E 121°02'0 0.0
2015-Jan-28 05:30N 31°47' E 121°02'0 0.0
2015-Jan-28 04:33N 31°47' E 121°02'0 0.1
2015-Jan-28 03:30N 31°47' E 121°02'0 0.1
2015-Jan-28 02:09N 31°47' E 121°02'0 0.1
2015-Jan-28 01:18N 31°47' E 121°02'0 0.0
2015-Jan-28 00:33N 31°47' E 121°02'0 0.0
2015-Jan-27 23:12N 31°47' E 121°02'0 0.0
2015-Jan-27 22:24N 31°47' E 121°02'0 0.1
2015-Jan-27 21:27N 31°47' E 121°02'0 0.2
2015-Jan-27 20:33N 31°47' E 121°02'0 0.0
2015-Jan-27 19:33N 31°47' E 121°02'0 0.0
2015-Jan-27 18:33N 31°47' E 121°02'0 0.0
2015-Jan-27 17:33N 31°47' E 121°02'0 0.0
2015-Jan-27 16:33N 31°47' E 121°02'0 0.0
2015-Jan-27 15:33N 31°47' E 121°02'0 0.0
2015-Jan-27 14:33N 31°47' E 121°02'0 0.1
2015-Jan-27 13:33N 31°47' E 121°02'0 0.2
2015-Jan-27 12:30N 31°47' E 121°02'0 0.0
2015-Jan-27 11:12N 31°47' E 121°02'0 0.1
2015-Jan-27 08:12N 31°47' E 121°02'0 0.2
2015-Jan-27 07:30N 31°47' E 121°02'0 0.0
2015-Jan-27 06:27N 31°47' E 121°02'0 0.0
2015-Jan-27 05:33N 31°47' E 121°02'0 0.0
2015-Jan-27 04:29N 31°47' E 121°02'0 0.0
2015-Jan-27 03:32N 31°47' E 121°02'0 0.1
2015-Jan-27 02:20N 31°47' E 121°02'0 0.1
2015-Jan-27 01:23N 31°47' E 121°02'0 0.1
2015-Jan-27 00:23N 31°47' E 121°02'0 0.0
2015-Jan-26 23:29N 31°47' E 121°02'0 0.0
2015-Jan-26 22:23N 31°47' E 121°02'0 0.0
2015-Jan-26 21:29N 31°47' E 121°02'0 0.1
2015-Jan-26 19:26N 31°47' E 121°02'0 0.0
2015-Jan-26 18:29N 31°47' E 121°02'0 0.0
2015-Jan-26 17:29N 31°47' E 121°02'0 0.0
2015-Jan-26 16:29N 31°47' E 121°02'1 1.1
2015-Jan-26 15:33N 31°47' E 121°03'10 9.7
2015-Jan-26 14:33N 31°40' E 121°12'1010.0
2015-Jan-26 13:33N 31°33' E 121°20'9 9.1
2015-Jan-26 12:33N 31°27' E 121°28'8 8.3
2015-Jan-26 11:33N 31°23' E 121°36'9 9.5
2015-Jan-26 10:33N 31°18' E 121°46'10 9.8
2015-Jan-26 09:33N 31°15' E 121°57'10 9.8
2015-Jan-26 08:33N 31°12' E 122°08'1010.1
2015-Jan-26 07:33N 31°07' E 122°18'10 9.9
2015-Jan-26 06:33N 31°07' E 122°29'10 8.0
2015-Jan-26 05:20N 31°07' E 122°41'306 7.5
2015-Jan-24 12:25N 35°57' E 120°44'25 0.7
2015-Jan-22 23:34N 36°01' E 120°13'8 7.7
2015-Jan-22 22:33N 36°01' E 120°23'  
Track history (hours):
 
Tides and Currents Weather Stations Pressure Air Temp Water Temp Dewpoint Dewpoint Depression Visibility Wind Speed Wind Dir Waves Ship Positions

Neptune Antlia

Last reported at 2015-Feb-01 22:28 UTC. Time now 2015-Feb-01 22:44 UTC.
Position N 31°55' E 120°13'.

Type: Cargo ship. MMSI: 563737000.

Date/timePositionNaut miles runAvg speedWind from/ knotsBaromVisibWave heightAir tempDewpointWater temp
2015-Feb-01 22:28N 31°55' E 120°13'0 0.0
2015-Feb-01 21:16N 31°55' E 120°13'0 0.0
2015-Feb-01 20:28N 31°55' E 120°13'0 0.1
2015-Feb-01 19:28N 31°55' E 120°13'0 0.0
2015-Feb-01 18:22N 31°55' E 120°13'0 0.1
2015-Feb-01 17:28N 31°55' E 120°13'0 0.0
2015-Feb-01 16:22N 31°55' E 120°13'0 0.1
2015-Feb-01 15:28N 31°55' E 120°13'0 0.1
2015-Feb-01 14:28N 31°55' E 120°13'0 0.0
2015-Feb-01 13:28N 31°55' E 120°13'0 0.0
2015-Feb-01 12:28N 31°56' E 120°13'0 0.0
2015-Feb-01 11:22N 31°55' E 120°13'0 0.0
2015-Feb-01 10:22N 31°56' E 120°13'0 0.0
2015-Feb-01 08:28N 31°55' E 120°13'0 0.0
2015-Feb-01 07:22N 31°56' E 120°13'0 0.0
2015-Feb-01 06:27N 31°55' E 120°13'0 0.0
2015-Feb-01 04:21N 31°55' E 120°13'0 0.0
2015-Feb-01 03:33N 31°55' E 120°13'5 4.9
2015-Feb-01 02:33N 31°58' E 120°18'6 5.4
2015-Feb-01 01:31N 32°01' E 120°24'0 0.0
2015-Feb-01 00:31N 32°01' E 120°24'0 0.0
2015-Jan-31 23:31N 32°01' E 120°24'0 0.0
2015-Jan-31 22:31N 32°01' E 120°24'0 0.1
2015-Jan-31 21:31N 32°01' E 120°24'0 0.1
2015-Jan-31 20:31N 32°01' E 120°24'0 0.1
2015-Jan-31 19:31N 32°01' E 120°23'0 0.0
2015-Jan-31 18:31N 32°01' E 120°23'0 0.0
2015-Jan-31 17:25N 32°01' E 120°23'0 0.0
2015-Jan-31 16:31N 32°01' E 120°23'0 0.2
2015-Jan-31 15:31N 32°01' E 120°24'1 0.6
2015-Jan-31 14:33N 32°01' E 120°23'4 4.2
2015-Jan-31 13:33N 31°58' E 120°20'7 6.8
2015-Jan-31 12:33N 31°59' E 120°27'7 7.2
2015-Jan-31 11:33N 32°00' E 120°36'1110.7
2015-Jan-31 10:33N 32°00' E 120°48'1110.6
2015-Jan-31 09:33N 31°51' E 120°54'5 5.1
2015-Jan-31 08:29N 31°46' E 120°57'0 0.0
2015-Jan-31 07:32N 31°46' E 120°57'0 0.0
2015-Jan-31 06:32N 31°46' E 120°57'0 0.0
2015-Jan-31 05:32N 31°46' E 120°57'0 0.0
2015-Jan-31 04:32N 31°46' E 120°57'0 0.0
2015-Jan-31 03:29N 31°46' E 120°57'0 0.0
2015-Jan-31 02:32N 31°46' E 120°57'0 0.0
2015-Jan-31 01:29N 31°46' E 120°57'0 0.0
2015-Jan-31 00:32N 31°46' E 120°57'0 0.0
2015-Jan-30 23:26N 31°46' E 120°57'0 0.0
2015-Jan-30 22:32N 31°46' E 120°57'0 0.0
2015-Jan-30 21:29N 31°46' E 120°57'0 0.0
2015-Jan-30 20:23N 31°46' E 120°57'0 0.0
2015-Jan-30 19:32N 31°46' E 120°57'0 0.0
2015-Jan-30 18:17N 31°46' E 120°57'0 0.0
2015-Jan-30 17:29N 31°46' E 120°57'0 0.0
2015-Jan-30 16:29N 31°46' E 120°57'0 0.0
2015-Jan-30 15:32N 31°46' E 120°57'0 0.0
2015-Jan-30 14:29N 31°46' E 120°57'0 0.0
2015-Jan-30 13:32N 31°46' E 120°57'0 0.0
2015-Jan-30 12:32N 31°46' E 120°57'0 0.0
2015-Jan-30 11:32N 31°46' E 120°57'0 0.0
2015-Jan-30 10:32N 31°46' E 120°57'0 0.4
2015-Jan-30 09:33N 31°46' E 120°57'5 4.3
2015-Jan-30 08:29N 31°47' E 121°02'0 0.1
2015-Jan-30 07:32N 31°47' E 121°02'0 0.0
2015-Jan-30 06:32N 31°47' E 121°02'0 0.1
2015-Jan-30 05:29N 31°47' E 121°02'0 0.2
2015-Jan-30 04:32N 31°47' E 121°02'0 0.1
2015-Jan-30 03:14N 31°47' E 121°02'0 0.0
2015-Jan-30 01:25N 31°47' E 121°02'0 0.1
2015-Jan-30 00:10N 31°47' E 121°02'0 0.2
2015-Jan-29 23:28N 31°47' E 121°02'0 0.0
2015-Jan-29 22:31N 31°47' E 121°02'0 0.0
2015-Jan-29 21:31N 31°47' E 121°02'0 0.0
2015-Jan-29 20:28N 31°47' E 121°02'0 0.0
2015-Jan-29 19:31N 31°47' E 121°02'0 0.0
2015-Jan-29 18:31N 31°47' E 121°02'0 0.0
2015-Jan-29 17:31N 31°47' E 121°02'0 0.0
2015-Jan-29 16:31N 31°47' E 121°02'0 0.1
2015-Jan-29 15:28N 31°47' E 121°02'0 0.1
2015-Jan-29 14:31N 31°47' E 121°02'0 0.1
2015-Jan-29 13:25N 31°47' E 121°02'0 0.0
2015-Jan-29 12:22N 31°47' E 121°02'0 0.1
2015-Jan-29 11:13N 31°47' E 121°02'0 0.1
2015-Jan-29 10:28N 31°47' E 121°02'0 0.0
2015-Jan-29 09:28N 31°47' E 121°02'0 0.0
2015-Jan-29 08:31N 31°47' E 121°02'0 0.0
2015-Jan-29 07:28N 31°47' E 121°02'0 0.0
2015-Jan-29 06:31N 31°47' E 121°02'0 0.0
2015-Jan-29 05:28N 31°47' E 121°02'0 0.1
2015-Jan-29 03:31N 31°47' E 121°02'0 0.1
2015-Jan-29 02:31N 31°47' E 121°02'0 0.0
2015-Jan-29 01:31N 31°47' E 121°02'0 0.0
2015-Jan-29 00:31N 31°47' E 121°02'0 0.0
2015-Jan-28 23:31N 31°47' E 121°02'0 0.1
2015-Jan-28 22:31N 31°47' E 121°02'0 0.2
2015-Jan-28 21:31N 31°47' E 121°02'0 0.1
2015-Jan-28 20:28N 31°47' E 121°02'0 0.0
2015-Jan-28 19:31N 31°47' E 121°02'0 0.0
2015-Jan-28 18:28N 31°47' E 121°02'0 0.0
2015-Jan-28 17:31N 31°47' E 121°02'0 0.0
2015-Jan-28 16:22N 31°47' E 121°02'0 0.0
2015-Jan-28 15:33N 31°47' E 121°02'0 0.1
2015-Jan-28 14:33N 31°47' E 121°02'0 0.1
2015-Jan-28 13:21N 31°47' E 121°02'0 0.0
2015-Jan-28 12:03N 31°47' E 121°02'0 0.0
2015-Jan-28 11:21N 31°47' E 121°02'0 0.0
2015-Jan-28 10:18N 31°47' E 121°02'0 0.2
2015-Jan-28 09:30N 31°47' E 121°02'0 0.2
2015-Jan-28 08:30N 31°47' E 121°02'0 0.0
2015-Jan-28 07:33N 31°47' E 121°02'0 0.0
2015-Jan-28 06:30N 31°47' E 121°02'0 0.0
2015-Jan-28 05:30N 31°47' E 121°02'0 0.0
2015-Jan-28 04:33N 31°47' E 121°02'0 0.1
2015-Jan-28 03:30N 31°47' E 121°02'0 0.1
2015-Jan-28 02:09N 31°47' E 121°02'0 0.1
2015-Jan-28 01:18N 31°47' E 121°02'0 0.0
2015-Jan-28 00:33N 31°47' E 121°02'0 0.0
2015-Jan-27 23:12N 31°47' E 121°02'0 0.0
2015-Jan-27 22:24N 31°47' E 121°02'0 0.1
2015-Jan-27 21:27N 31°47' E 121°02'0 0.2
2015-Jan-27 20:33N 31°47' E 121°02'0 0.0
2015-Jan-27 19:33N 31°47' E 121°02'0 0.0
2015-Jan-27 18:33N 31°47' E 121°02'0 0.0
2015-Jan-27 17:33N 31°47' E 121°02'0 0.0
2015-Jan-27 16:33N 31°47' E 121°02'0 0.0
2015-Jan-27 15:33N 31°47' E 121°02'0 0.0
2015-Jan-27 14:33N 31°47' E 121°02'0 0.1
2015-Jan-27 13:33N 31°47' E 121°02'0 0.2
2015-Jan-27 12:30N 31°47' E 121°02'0 0.0
2015-Jan-27 11:12N 31°47' E 121°02'0 0.1
2015-Jan-27 08:12N 31°47' E 121°02'0 0.2
2015-Jan-27 07:30N 31°47' E 121°02'0 0.0
2015-Jan-27 06:27N 31°47' E 121°02'0 0.0
2015-Jan-27 05:33N 31°47' E 121°02'0 0.0
2015-Jan-27 04:29N 31°47' E 121°02'0 0.0
2015-Jan-27 03:32N 31°47' E 121°02'0 0.1
2015-Jan-27 02:20N 31°47' E 121°02'0 0.1
2015-Jan-27 01:23N 31°47' E 121°02'0 0.1
2015-Jan-27 00:23N 31°47' E 121°02'0 0.0
2015-Jan-26 23:29N 31°47' E 121°02'0 0.0
2015-Jan-26 22:23N 31°47' E 121°02'0 0.0
2015-Jan-26 21:29N 31°47' E 121°02'0 0.1
2015-Jan-26 19:26N 31°47' E 121°02'0 0.0
2015-Jan-26 18:29N 31°47' E 121°02'0 0.0
2015-Jan-26 17:29N 31°47' E 121°02'0 0.0
2015-Jan-26 16:29N 31°47' E 121°02'1 1.1
2015-Jan-26 15:33N 31°47' E 121°03'10 9.7
2015-Jan-26 14:33N 31°40' E 121°12'1010.0
2015-Jan-26 13:33N 31°33' E 121°20'9 9.1
2015-Jan-26 12:33N 31°27' E 121°28'8 8.3
2015-Jan-26 11:33N 31°23' E 121°36'9 9.5
2015-Jan-26 10:33N 31°18' E 121°46'10 9.8
2015-Jan-26 09:33N 31°15' E 121°57'10 9.8
2015-Jan-26 08:33N 31°12' E 122°08'1010.1
2015-Jan-26 07:33N 31°07' E 122°18'10 9.9
2015-Jan-26 06:33N 31°07' E 122°29'10 8.0
2015-Jan-26 05:20N 31°07' E 122°41'306 7.5
2015-Jan-24 12:25N 35°57' E 120°44'25 0.7
2015-Jan-22 23:34N 36°01' E 120°13'8 7.7
2015-Jan-22 22:33N 36°01' E 120°23'  

Dump ship's entire track history